sensor_id;sensor_type;location;lat;lon;timestamp;pressure;altitude;pressure_sealevel;temperature;humidity
7524;BME280;3803;51.666;7.630;2023-05-01T00:00:05;101207.53;;;9.77;49.14
7524;BME280;3803;51.666;7.630;2023-05-01T00:00:26;101213.72;;;9.79;49.26
7524;BME280;3803;51.666;7.630;2023-05-01T00:00:48;101212.75;;;9.77;49.05
7524;BME280;3803;51.666;7.630;2023-05-01T00:01:08;101206.47;;;9.72;49.33
7524;BME280;3803;51.666;7.630;2023-05-01T00:01:29;101203.03;;;9.73;49.28
7524;BME280;3803;51.666;7.630;2023-05-01T00:01:49;101199.44;;;9.69;49.44
7524;BME280;3803;51.666;7.630;2023-05-01T00:02:11;101204.75;;;9.72;49.74
7524;BME280;3803;51.666;7.630;2023-05-01T00:02:31;101203.97;;;9.75;49.61
7524;BME280;3803;51.666;7.630;2023-05-01T00:03:14;101208.53;;;9.81;49.54
7524;BME280;3803;51.666;7.630;2023-05-01T00:04:49;101196.06;;;9.72;49.73
7524;BME280;3803;51.666;7.630;2023-05-01T00:05:10;101195.22;;;9.73;49.71
7524;BME280;3803;51.666;7.630;2023-05-01T00:05:30;101199.66;;;9.76;49.69
7524;BME280;3803;51.666;7.630;2023-05-01T00:05:58;101201.50;;;9.78;49.51
7524;BME280;3803;51.666;7.630;2023-05-01T00:06:19;101190.00;;;9.73;49.64
7524;BME280;3803;51.666;7.630;2023-05-01T00:06:39;101194.38;;;9.74;49.68
7524;BME280;3803;51.666;7.630;2023-05-01T00:07:00;101189.00;;;9.69;49.91
7524;BME280;3803;51.666;7.630;2023-05-01T00:07:21;101189.88;;;9.70;49.31
7524;BME280;3803;51.666;7.630;2023-05-01T00:07:42;101189.06;;;9.71;49.50
7524;BME280;3803;51.666;7.630;2023-05-01T00:08:02;101187.25;;;9.70;49.42
7524;BME280;3803;51.666;7.630;2023-05-01T00:08:23;101191.72;;;9.72;49.37
7524;BME280;3803;51.666;7.630;2023-05-01T00:08:43;101190.00;;;9.73;49.69
7524;BME280;3803;51.666;7.630;2023-05-01T00:09:04;101192.63;;;9.73;49.60
7524;BME280;3803;51.666;7.630;2023-05-01T00:09:26;101190.78;;;9.70;49.48
7524;BME280;3803;51.666;7.630;2023-05-01T00:09:47;101188.22;;;9.72;49.67
7524;BME280;3803;51.666;7.630;2023-05-01T00:10:07;101195.16;;;9.71;49.88
7524;BME280;3803;51.666;7.630;2023-05-01T00:10:28;101188.69;;;9.84;49.59
7524;BME280;3803;51.666;7.630;2023-05-01T00:10:48;101192.53;;;9.94;49.12
7524;BME280;3803;51.666;7.630;2023-05-01T00:11:09;101179.44;;;9.93;49.05
7524;BME280;3803;51.666;7.630;2023-05-01T00:11:31;101196.25;;;10.01;49.07
7524;BME280;3803;51.666;7.630;2023-05-01T00:11:52;101182.34;;;10.00;48.89
7524;BME280;3803;51.666;7.630;2023-05-01T00:12:12;101190.31;;;10.05;48.79
7524;BME280;3803;51.666;7.630;2023-05-01T00:12:33;101183.28;;;10.03;49.00
7524;BME280;3803;51.666;7.630;2023-05-01T00:12:54;101187.72;;;10.05;49.00
7524;BME280;3803;51.666;7.630;2023-05-01T00:13:14;101193.88;;;10.07;48.80
7524;BME280;3803;51.666;7.630;2023-05-01T00:13:35;101189.59;;;10.09;48.93
7524;BME280;3803;51.666;7.630;2023-05-01T00:13:55;101187.81;;;10.08;48.97
7524;BME280;3803;51.666;7.630;2023-05-01T00:14:16;101184.38;;;10.09;48.63
7524;BME280;3803;51.666;7.630;2023-05-01T00:14:36;101186.94;;;10.08;48.61
7524;BME280;3803;51.666;7.630;2023-05-01T00:14:57;101193.94;;;10.09;48.80
7524;BME280;3803;51.666;7.630;2023-05-01T00:15:17;101186.00;;;10.06;48.55
7524;BME280;3803;51.666;7.630;2023-05-01T00:15:40;101182.50;;;10.05;48.72
7524;BME280;3803;51.666;7.630;2023-05-01T00:16:06;101194.78;;;10.08;48.55
7524;BME280;3803;51.666;7.630;2023-05-01T00:16:27;101180.59;;;10.01;48.31
7524;BME280;3803;51.666;7.630;2023-05-01T00:16:48;101187.72;;;10.05;48.31
7524;BME280;3803;51.666;7.630;2023-05-01T00:17:17;101192.19;;;10.09;48.41
7524;BME280;3803;51.666;7.630;2023-05-01T00:17:38;101177.19;;;10.02;48.31
7524;BME280;3803;51.666;7.630;2023-05-01T00:17:58;101178.97;;;10.03;48.36
7524;BME280;3803;51.666;7.630;2023-05-01T00:18:19;101177.19;;;10.02;48.14
7524;BME280;3803;51.666;7.630;2023-05-01T00:18:40;101182.41;;;10.02;48.60
7524;BME280;3803;51.666;7.630;2023-05-01T00:19:01;101192.94;;;10.05;48.16
7524;BME280;3803;51.666;7.630;2023-05-01T00:19:22;101184.28;;;10.06;48.49
7524;BME280;3803;51.666;7.630;2023-05-01T00:19:45;101185.94;;;10.04;48.48
7524;BME280;3803;51.666;7.630;2023-05-01T00:20:06;101184.22;;;10.05;48.24
7524;BME280;3803;51.666;7.630;2023-05-01T00:20:28;101182.44;;;10.04;48.08
7524;BME280;3803;51.666;7.630;2023-05-01T00:20:48;101195.81;;;10.13;48.32
7524;BME280;3803;51.666;7.630;2023-05-01T00:21:09;101182.41;;;10.02;48.26
7524;BME280;3803;51.666;7.630;2023-05-01T00:21:30;101185.94;;;10.04;47.92
7524;BME280;3803;51.666;7.630;2023-05-01T00:21:51;101192.16;;;10.08;48.27
7524;BME280;3803;51.666;7.630;2023-05-01T00:22:12;101172.75;;;9.99;48.01
7524;BME280;3803;51.666;7.630;2023-05-01T00:22:38;101172.69;;;9.98;48.22
7524;BME280;3803;51.666;7.630;2023-05-01T00:22:59;101185.19;;;10.07;48.23
7524;BME280;3803;51.666;7.630;2023-05-01T00:23:20;101165.69;;;9.97;48.22
7524;BME280;3803;51.666;7.630;2023-05-01T00:23:40;101184.28;;;10.06;48.28
7524;BME280;3803;51.666;7.630;2023-05-01T00:24:01;101179.78;;;10.02;48.16
7524;BME280;3803;51.666;7.630;2023-05-01T00:24:21;101177.06;;;9.99;48.00
7524;BME280;3803;51.666;7.630;2023-05-01T00:24:42;101170.97;;;9.98;48.08
7524;BME280;3803;51.666;7.630;2023-05-01T00:25:02;101164.38;;;9.85;48.50
7524;BME280;3803;51.666;7.630;2023-05-01T00:25:23;101179.94;;;9.82;48.63
7524;BME280;3803;51.666;7.630;2023-05-01T00:25:43;101164.78;;;9.72;48.72
7524;BME280;3803;51.666;7.630;2023-05-01T00:26:04;101162.94;;;9.69;48.62
7524;BME280;3803;51.666;7.630;2023-05-01T00:26:25;101171.69;;;9.71;48.73
7524;BME280;3803;51.666;7.630;2023-05-01T00:26:49;101165.44;;;9.66;48.83
7524;BME280;3803;51.666;7.630;2023-05-01T00:27:10;101168.91;;;9.67;48.77
7524;BME280;3803;51.666;7.630;2023-05-01T00:27:30;101166.25;;;9.65;48.94
7524;BME280;3803;51.666;7.630;2023-05-01T00:27:51;101174.13;;;9.67;48.87
7524;BME280;3803;51.666;7.630;2023-05-01T00:28:11;101181.13;;;9.68;48.96
7524;BME280;3803;51.666;7.630;2023-05-01T00:28:32;101165.22;;;9.62;48.97
7524;BME280;3803;51.666;7.630;2023-05-01T00:28:53;101165.13;;;9.58;49.13
7524;BME280;3803;51.666;7.630;2023-05-01T00:29:15;101169.66;;;9.63;49.24
7524;BME280;3803;51.666;7.630;2023-05-01T00:29:36;101166.06;;;9.60;49.16
7524;BME280;3803;51.666;7.630;2023-05-01T00:29:57;101164.28;;;9.59;49.41
7524;BME280;3803;51.666;7.630;2023-05-01T00:30:17;101170.44;;;9.62;49.31
7524;BME280;3803;51.666;7.630;2023-05-01T00:30:38;101160.69;;;9.56;49.29
7524;BME280;3803;51.666;7.630;2023-05-01T00:31:00;101156.38;;;9.56;49.17
7524;BME280;3803;51.666;7.630;2023-05-01T00:31:20;101168.81;;;9.64;49.32
7524;BME280;3803;51.666;7.630;2023-05-01T00:31:43;101161.81;;;9.63;49.26
7524;BME280;3803;51.666;7.630;2023-05-01T00:32:04;101170.69;;;9.68;49.00
7524;BME280;3803;51.666;7.630;2023-05-01T00:32:25;101167.16;;;9.66;49.10
7524;BME280;3803;51.666;7.630;2023-05-01T00:32:46;101166.22;;;9.64;49.14
7524;BME280;3803;51.666;7.630;2023-05-01T00:33:06;101158.38;;;9.64;48.81
7524;BME280;3803;51.666;7.630;2023-05-01T00:33:27;101162.88;;;9.68;48.90
7524;BME280;3803;51.666;7.630;2023-05-01T00:33:57;101165.72;;;9.74;48.89
7524;BME280;3803;51.666;7.630;2023-05-01T00:34:18;101154.94;;;9.65;48.79
7524;BME280;3803;51.666;7.630;2023-05-01T00:34:38;101158.50;;;9.67;48.86
7524;BME280;3803;51.666;7.630;2023-05-01T00:34:59;101167.25;;;9.69;48.74
7524;BME280;3803;51.666;7.630;2023-05-01T00:35:19;101162.88;;;9.68;49.11
7524;BME280;3803;51.666;7.630;2023-05-01T00:35:43;101160.25;;;9.68;49.24
7524;BME280;3803;51.666;7.630;2023-05-01T00:36:04;101154.94;;;9.65;49.21
7524;BME280;3803;51.666;7.630;2023-05-01T00:36:24;101154.94;;;9.65;49.03
7524;BME280;3803;51.666;7.630;2023-05-01T00:36:45;101151.34;;;9.61;49.06
7524;BME280;3803;51.666;7.630;2023-05-01T00:37:06;101158.38;;;9.64;48.75
7524;BME280;3803;51.666;7.630;2023-05-01T00:37:26;101161.09;;;9.67;49.02
7524;BME280;3803;51.666;7.630;2023-05-01T00:37:47;101149.56;;;9.60;48.82
7524;BME280;3803;51.666;7.630;2023-05-01T00:38:07;101169.84;;;9.69;49.13
7524;BME280;3803;51.666;7.630;2023-05-01T00:38:28;101159.25;;;9.64;48.78
7524;BME280;3803;51.666;7.630;2023-05-01T00:38:49;101154.72;;;9.58;48.68
7524;BME280;3803;51.666;7.630;2023-05-01T00:39:11;101149.50;;;9.58;48.63
7524;BME280;3803;51.666;7.630;2023-05-01T00:39:32;101156.41;;;9.58;48.63
7524;BME280;3803;51.666;7.630;2023-05-01T00:40:20;101169.81;;;9.67;48.60
7524;BME280;3803;51.666;7.630;2023-05-01T00:40:44;101151.16;;;9.56;48.71
7524;BME280;3803;51.666;7.630;2023-05-01T00:41:05;101152.94;;;9.57;48.73
7524;BME280;3803;51.666;7.630;2023-05-01T00:41:26;101163.47;;;9.60;48.76
7524;BME280;3803;51.666;7.630;2023-05-01T00:41:46;101156.47;;;9.59;48.85
7524;BME280;3803;51.666;7.630;2023-05-01T00:42:07;101154.72;;;9.58;48.60
7524;BME280;3803;51.666;7.630;2023-05-01T00:42:33;101166.22;;;9.64;48.45
7524;BME280;3803;51.666;7.630;2023-05-01T00:42:53;101158.22;;;9.59;48.71
7524;BME280;3803;51.666;7.630;2023-05-01T00:43:15;101147.78;;;9.59;48.52
7524;BME280;3803;51.666;7.630;2023-05-01T00:43:35;101144.19;;;9.55;48.85
7524;BME280;3803;51.666;7.630;2023-05-01T00:43:56;101145.06;;;9.56;48.53
7524;BME280;3803;51.666;7.630;2023-05-01T00:44:17;101156.53;;;9.61;48.72
7524;BME280;3803;51.666;7.630;2023-05-01T00:44:38;101138.06;;;9.55;48.79
7524;BME280;3803;51.666;7.630;2023-05-01T00:44:59;101144.94;;;9.53;48.80
7524;BME280;3803;51.666;7.630;2023-05-01T00:45:19;101163.94;;;9.73;48.50
7524;BME280;3803;51.666;7.630;2023-05-01T00:45:43;101138.84;;;9.52;48.63
7524;BME280;3803;51.666;7.630;2023-05-01T00:46:06;101155.38;;;9.53;48.52
7524;BME280;3803;51.666;7.630;2023-05-01T00:46:27;101138.72;;;9.49;49.02
7524;BME280;3803;51.666;7.630;2023-05-01T00:46:49;101151.09;;;9.55;48.64
7524;BME280;3803;51.666;7.630;2023-05-01T00:47:09;101130.06;;;9.50;48.78
7524;BME280;3803;51.666;7.630;2023-05-01T00:47:30;101159.72;;;9.77;48.58
7524;BME280;3803;51.666;7.630;2023-05-01T00:47:52;101133.38;;;9.69;48.04
7524;BME280;3803;51.666;7.630;2023-05-01T00:48:13;101152.03;;;9.80;48.14
7524;BME280;3803;51.666;7.630;2023-05-01T00:48:34;101157.28;;;9.81;47.96
7524;BME280;3803;51.666;7.630;2023-05-01T00:48:58;101148.47;;;9.78;48.15
7524;BME280;3803;51.666;7.630;2023-05-01T00:49:19;101145.09;;;9.80;48.16
7524;BME280;3803;51.666;7.630;2023-05-01T00:49:43;101145.97;;;9.81;48.07
7524;BME280;3803;51.666;7.630;2023-05-01T00:50:06;101148.56;;;9.81;48.17
7524;BME280;3803;51.666;7.630;2023-05-01T00:50:27;101137.97;;;9.76;48.23
7524;BME280;3803;51.666;7.630;2023-05-01T00:50:48;101124.84;;;9.73;48.21
7524;BME280;3803;51.666;7.630;2023-05-01T00:51:09;101146.94;;;9.83;47.98
7524;BME280;3803;51.666;7.630;2023-05-01T00:51:32;101138.16;;;9.81;47.91
7524;BME280;3803;51.666;7.630;2023-05-01T00:51:53;101137.16;;;9.77;47.85
7524;BME280;3803;51.666;7.630;2023-05-01T00:52:13;101129.22;;;9.74;48.12
7524;BME280;3803;51.666;7.630;2023-05-01T00:52:34;101141.56;;;9.78;48.34
7524;BME280;3803;51.666;7.630;2023-05-01T00:52:55;101137.09;;;9.76;48.21
7524;BME280;3803;51.666;7.630;2023-05-01T00:53:16;101132.59;;;9.71;48.21
7524;BME280;3803;51.666;7.630;2023-05-01T00:53:42;101131.75;;;9.72;48.24
7524;BME280;3803;51.666;7.630;2023-05-01T00:54:02;101131.66;;;9.69;48.43
7524;BME280;3803;51.666;7.630;2023-05-01T00:54:25;101145.94;;;9.79;48.20
7524;BME280;3803;51.666;7.630;2023-05-01T00:54:47;101130.75;;;9.69;48.23
7524;BME280;3803;51.666;7.630;2023-05-01T00:55:12;101130.75;;;9.69;48.66
7524;BME280;3803;51.666;7.630;2023-05-01T00:55:33;101134.34;;;9.71;48.80
7524;BME280;3803;51.666;7.630;2023-05-01T00:57:05;101142.25;;;9.74;48.20
7524;BME280;3803;51.666;7.630;2023-05-01T00:57:27;101132.44;;;9.67;48.14
7524;BME280;3803;51.666;7.630;2023-05-01T00:57:48;101128.81;;;9.63;48.26
7524;BME280;3803;51.666;7.630;2023-05-01T00:58:10;101125.34;;;9.63;48.20
7524;BME280;3803;51.666;7.630;2023-05-01T00:58:31;101126.13;;;9.60;48.50
7524;BME280;3803;51.666;7.630;2023-05-01T00:58:52;101134.78;;;9.60;48.61
7524;BME280;3803;51.666;7.630;2023-05-01T00:59:13;101133.97;;;9.62;48.48
7524;BME280;3803;51.666;7.630;2023-05-01T00:59:34;101119.06;;;9.57;48.54
7524;BME280;3803;51.666;7.630;2023-05-01T00:59:54;101116.47;;;9.57;48.85
7524;BME280;3803;51.666;7.630;2023-05-01T01:00:15;101132.97;;;9.58;48.64
7524;BME280;3803;51.666;7.630;2023-05-01T01:00:37;101136.06;;;9.48;48.71
7524;BME280;3803;51.666;7.630;2023-05-01T01:00:58;101132.19;;;9.38;49.23
7524;BME280;3803;51.666;7.630;2023-05-01T01:01:20;101124.28;;;9.35;49.21
7524;BME280;3803;51.666;7.630;2023-05-01T01:01:41;101123.25;;;9.31;49.53
7524;BME280;3803;51.666;7.630;2023-05-01T01:02:02;101115.28;;;9.26;49.36
7524;BME280;3803;51.666;7.630;2023-05-01T01:02:22;101127.59;;;9.30;49.07
7524;BME280;3803;51.666;7.630;2023-05-01T01:02:44;101123.03;;;9.25;49.21
7524;BME280;3803;51.666;7.630;2023-05-01T01:03:05;101122.25;;;9.27;49.61
7524;BME280;3803;51.666;7.630;2023-05-01T01:03:27;101145.13;;;9.35;49.37
7524;BME280;3803;51.666;7.630;2023-05-01T01:03:48;101123.03;;;9.25;49.14
7524;BME280;3803;51.666;7.630;2023-05-01T01:04:12;101123.78;;;9.22;49.14
7524;BME280;3803;51.666;7.630;2023-05-01T01:04:32;101125.59;;;9.23;49.64
7524;BME280;3803;51.666;7.630;2023-05-01T01:04:53;101121.19;;;9.22;49.50
7524;BME280;3803;51.666;7.630;2023-05-01T01:05:15;101126.38;;;9.22;49.46
7524;BME280;3803;51.666;7.630;2023-05-01T01:05:41;101118.34;;;9.16;49.26
7524;BME280;3803;51.666;7.630;2023-05-01T01:06:09;101119.31;;;9.18;49.40
7524;BME280;3803;51.666;7.630;2023-05-01T01:06:34;101136.13;;;9.26;49.02
7524;BME280;3803;51.666;7.630;2023-05-01T01:07:17;101134.34;;;9.25;49.35
7524;BME280;3803;51.666;7.630;2023-05-01T01:07:48;101116.63;;;9.16;49.13
7524;BME280;3803;51.666;7.630;2023-05-01T01:08:25;101129.00;;;9.22;48.97
7524;BME280;3803;51.666;7.630;2023-05-01T01:08:56;101132.50;;;9.23;49.43
7524;BME280;3803;51.666;7.630;2023-05-01T01:09:35;101116.69;;;9.18;49.22
7524;BME280;3803;51.666;7.630;2023-05-01T01:10:14;101109.41;;;9.09;49.42
7524;BME280;3803;51.666;7.630;2023-05-01T01:10:52;101115.69;;;9.14;49.06
7524;BME280;3803;51.666;7.630;2023-05-01T01:11:22;101117.59;;;9.18;48.96
7524;BME280;3803;51.666;7.630;2023-05-01T01:12:03;101113.84;;;9.12;48.81
7524;BME280;3803;51.666;7.630;2023-05-01T01:12:38;101115.63;;;9.13;49.09
7524;BME280;3803;51.666;7.630;2023-05-01T01:13:11;101114.78;;;9.14;48.95
7524;BME280;3803;51.666;7.630;2023-05-01T01:13:42;101102.50;;;9.10;49.50
7524;BME280;3803;51.666;7.630;2023-05-01T01:14:17;101101.56;;;9.08;49.40
7524;BME280;3803;51.666;7.630;2023-05-01T01:14:44;101095.25;;;9.02;49.31
7524;BME280;3803;51.666;7.630;2023-05-01T01:15:58;101108.47;;;9.07;49.40
7524;BME280;3803;51.666;7.630;2023-05-01T01:16:36;101122.56;;;9.12;49.59
7524;BME280;3803;51.666;7.630;2023-05-01T01:17:13;101109.47;;;9.11;49.40
7524;BME280;3803;51.666;7.630;2023-05-01T01:17:56;101117.28;;;9.11;49.46
7524;BME280;3803;51.666;7.630;2023-05-01T01:18:25;101105.69;;;9.02;49.64
7524;BME280;3803;51.666;7.630;2023-05-01T01:18:52;101090.75;;;8.98;49.74
7524;BME280;3803;51.666;7.630;2023-05-01T01:20:47;101119.78;;;9.08;49.38
7524;BME280;3803;51.666;7.630;2023-05-01T01:21:36;101102.00;;;8.97;49.61
7524;BME280;3803;51.666;7.630;2023-05-01T01:22:02;101108.22;;;9.01;49.72
7524;BME280;3803;51.666;7.630;2023-05-01T01:22:28;101089.56;;;8.90;49.44
7524;BME280;3803;51.666;7.630;2023-05-01T01:23:57;101094.75;;;8.90;49.90
7524;BME280;3803;51.666;7.630;2023-05-01T01:26:02;101115.06;;;8.99;49.45
7524;BME280;3803;51.666;7.630;2023-05-01T01:34:14;101103.53;;;8.92;49.35
7524;BME280;3803;51.666;7.630;2023-05-01T01:34:49;101083.13;;;8.80;49.67
7524;BME280;3803;51.666;7.630;2023-05-01T01:35:19;101097.19;;;8.85;49.85
7524;BME280;3803;51.666;7.630;2023-05-01T01:35:41;101090.16;;;8.83;49.80
7524;BME280;3803;51.666;7.630;2023-05-01T01:36:10;101094.41;;;8.81;49.43
7524;BME280;3803;51.666;7.630;2023-05-01T01:36:42;101092.69;;;8.81;49.44
7524;BME280;3803;51.666;7.630;2023-05-01T01:37:24;101104.16;;;8.86;49.97
7524;BME280;3803;51.666;7.630;2023-05-01T01:38:00;101083.97;;;8.81;49.41
7524;BME280;3803;51.666;7.630;2023-05-01T01:38:28;101092.88;;;8.86;49.70
7524;BME280;3803;51.666;7.630;2023-05-01T01:39:08;101106.84;;;8.88;49.58
7524;BME280;3803;51.666;7.630;2023-05-01T01:40:08;101108.69;;;8.90;49.26
7524;BME280;3803;51.666;7.630;2023-05-01T01:40:37;101084.75;;;8.78;49.62
7524;BME280;3803;51.666;7.630;2023-05-01T01:41:06;101088.25;;;8.79;49.33
7524;BME280;3803;51.666;7.630;2023-05-01T01:41:30;101098.94;;;8.86;49.53
7524;BME280;3803;51.666;7.630;2023-05-01T01:41:53;101090.03;;;8.80;49.52
7524;BME280;3803;51.666;7.630;2023-05-01T01:42:19;101085.66;;;8.79;49.72
7524;BME280;3803;51.666;7.630;2023-05-01T01:42:45;101086.56;;;8.79;49.58
7524;BME280;3803;51.666;7.630;2023-05-01T01:43:11;101082.94;;;8.75;49.66
7524;BME280;3803;51.666;7.630;2023-05-01T01:43:37;101092.44;;;8.75;49.79
7524;BME280;3803;51.666;7.630;2023-05-01T01:44:03;101077.50;;;8.71;49.53
7524;BME280;3803;51.666;7.630;2023-05-01T01:44:32;101089.06;;;8.77;49.62
7524;BME280;3803;51.666;7.630;2023-05-01T01:44:54;101090.03;;;8.80;49.93
7524;BME280;3803;51.666;7.630;2023-05-01T01:45:33;101082.78;;;8.72;49.39
7524;BME280;3803;51.666;7.630;2023-05-01T01:46:01;101089.94;;;8.78;49.71
7524;BME280;3803;51.666;7.630;2023-05-01T01:46:25;101085.38;;;8.72;49.71
7524;BME280;3803;51.666;7.630;2023-05-01T01:46:47;101083.63;;;8.71;49.83
7524;BME280;3803;51.666;7.630;2023-05-01T01:47:11;101083.72;;;8.74;49.86
7524;BME280;3803;51.666;7.630;2023-05-01T01:47:33;101084.53;;;8.72;50.00
7524;BME280;3803;51.666;7.630;2023-05-01T01:47:54;101080.06;;;8.69;49.66
7524;BME280;3803;51.666;7.630;2023-05-01T01:48:21;101083.63;;;8.71;49.58
7524;BME280;3803;51.666;7.630;2023-05-01T01:48:45;101073.84;;;8.66;49.71
7524;BME280;3803;51.666;7.630;2023-05-01T01:49:12;101088.81;;;8.71;49.86
7524;BME280;3803;51.666;7.630;2023-05-01T01:49:37;101082.28;;;8.60;49.81
7524;BME280;3803;51.666;7.630;2023-05-01T01:50:02;101073.50;;;8.58;50.06
7524;BME280;3803;51.666;7.630;2023-05-01T01:50:25;101089.31;;;8.62;50.12
7524;BME280;3803;51.666;7.630;2023-05-01T01:50:47;101080.47;;;8.59;49.92
7524;BME280;3803;51.666;7.630;2023-05-01T01:51:13;101081.28;;;8.58;50.31
7524;BME280;3803;51.666;7.630;2023-05-01T01:51:36;101069.00;;;8.54;50.20
7524;BME280;3803;51.666;7.630;2023-05-01T01:52:00;101077.69;;;8.54;50.49
7524;BME280;3803;51.666;7.630;2023-05-01T01:52:23;101083.91;;;8.58;50.39
7524;BME280;3803;51.666;7.630;2023-05-01T01:52:48;101069.00;;;8.54;50.08
7524;BME280;3803;51.666;7.630;2023-05-01T01:53:10;101083.34;;;8.65;50.13
7524;BME280;3803;51.666;7.630;2023-05-01T01:53:33;101076.91;;;8.57;50.50
7524;BME280;3803;51.666;7.630;2023-05-01T01:53:57;101079.53;;;8.57;50.13
7524;BME280;3803;51.666;7.630;2023-05-01T01:54:35;101062.84;;;8.52;50.27
7524;BME280;3803;51.666;7.630;2023-05-01T01:55:07;101086.66;;;8.61;50.20
7524;BME280;3803;51.666;7.630;2023-05-01T01:55:30;101069.88;;;8.54;50.10
7524;BME280;3803;51.666;7.630;2023-05-01T01:55:53;101067.22;;;8.53;50.35
7524;BME280;3803;51.666;7.630;2023-05-01T01:56:16;101065.56;;;8.55;49.89
7524;BME280;3803;51.666;7.630;2023-05-01T01:56:40;101085.84;;;8.62;50.15
7524;BME280;3803;51.666;7.630;2023-05-01T01:57:02;101071.72;;;8.57;50.21
7524;BME280;3803;51.666;7.630;2023-05-01T01:57:23;101072.47;;;8.54;50.13
7524;BME280;3803;51.666;7.630;2023-05-01T01:57:45;101063.66;;;8.50;50.58
7524;BME280;3803;51.666;7.630;2023-05-01T01:58:08;101068.25;;;8.56;49.89
7524;BME280;3803;51.666;7.630;2023-05-01T01:58:30;101063.66;;;8.50;49.97
7524;BME280;3803;51.666;7.630;2023-05-01T01:58:51;101073.50;;;8.58;50.20
7524;BME280;3803;51.666;7.630;2023-05-01T01:59:14;101069.88;;;8.54;50.26
7524;BME280;3803;51.666;7.630;2023-05-01T01:59:35;101082.41;;;8.63;49.87
7524;BME280;3803;51.666;7.630;2023-05-01T01:59:57;101067.22;;;8.53;50.43
7524;BME280;3803;51.666;7.630;2023-05-01T02:00:19;101068.19;;;8.55;50.24
7524;BME280;3803;51.666;7.630;2023-05-01T02:00:44;101079.81;;;8.63;50.28
7524;BME280;3803;51.666;7.630;2023-05-01T02:01:05;101059.34;;;8.51;50.24
7524;BME280;3803;51.666;7.630;2023-05-01T02:01:28;101071.78;;;8.58;50.57
7524;BME280;3803;51.666;7.630;2023-05-01T02:01:49;101069.41;;;8.63;50.50
7524;BME280;3803;51.666;7.630;2023-05-01T02:02:13;101061.97;;;8.51;50.44
7524;BME280;3803;51.666;7.630;2023-05-01T02:02:36;101056.81;;;8.53;50.12
7524;BME280;3803;51.666;7.630;2023-05-01T02:02:59;101076.16;;;8.59;50.43
7524;BME280;3803;51.666;7.630;2023-05-01T02:03:22;101076.38;;;8.64;50.01
7524;BME280;3803;51.666;7.630;2023-05-01T02:03:44;101061.13;;;8.52;49.98
7524;BME280;3803;51.666;7.630;2023-05-01T02:04:07;101061.31;;;8.57;50.22
7524;BME280;3803;51.666;7.630;2023-05-01T02:04:30;101063.09;;;8.58;50.12
7524;BME280;3803;51.666;7.630;2023-05-01T02:05:16;101072.84;;;8.62;50.22
7524;BME280;3803;51.666;7.630;2023-05-01T02:05:44;101063.63;;;8.49;50.24
7524;BME280;3803;51.666;7.630;2023-05-01T02:06:07;101045.97;;;8.42;50.21
7524;BME280;3803;51.666;7.630;2023-05-01T02:06:28;101054.78;;;8.45;50.03
7524;BME280;3803;51.666;7.630;2023-05-01T02:06:52;101052.13;;;8.44;50.47
7524;BME280;3803;51.666;7.630;2023-05-01T02:07:16;101051.38;;;8.46;50.11
7524;BME280;3803;51.666;7.630;2023-05-01T02:07:38;101048.59;;;8.42;50.33
7524;BME280;3803;51.666;7.630;2023-05-01T02:08:01;101052.13;;;8.44;50.05
7524;BME280;3803;51.666;7.630;2023-05-01T02:08:24;101051.25;;;8.43;50.16
7524;BME280;3803;51.666;7.630;2023-05-01T02:08:45;101066.47;;;8.55;50.35
7524;BME280;3803;51.666;7.630;2023-05-01T02:09:08;101069.00;;;8.54;50.20
7524;BME280;3803;51.666;7.630;2023-05-01T02:09:31;101059.28;;;8.49;50.29
7524;BME280;3803;51.666;7.630;2023-05-01T02:09:55;101044.25;;;8.42;50.12
7524;BME280;3803;51.666;7.630;2023-05-01T02:10:17;101050.47;;;8.46;50.26
7524;BME280;3803;51.666;7.630;2023-05-01T02:10:40;101054.78;;;8.45;50.27
7524;BME280;3803;51.666;7.630;2023-05-01T02:11:02;101048.50;;;8.40;50.27
7524;BME280;3803;51.666;7.630;2023-05-01T02:11:24;101038.66;;;8.33;50.20
7524;BME280;3803;51.666;7.630;2023-05-01T02:11:47;101051.94;;;8.39;49.99
7524;BME280;3803;51.666;7.630;2023-05-01T02:12:10;101056.31;;;8.40;50.39
7524;BME280;3803;51.666;7.630;2023-05-01T02:12:32;101057.13;;;8.39;50.53
7524;BME280;3803;51.666;7.630;2023-05-01T02:12:54;101050.09;;;8.36;50.09
7524;BME280;3803;51.666;7.630;2023-05-01T02:13:18;101050.16;;;8.38;50.88
7524;BME280;3803;51.666;7.630;2023-05-01T02:13:41;101051.19;;;8.42;50.41
7524;BME280;3803;51.666;7.630;2023-05-01T02:14:04;101039.84;;;8.40;50.25
7524;BME280;3803;51.666;7.630;2023-05-01T02:14:26;101052.03;;;8.42;50.31
7524;BME280;3803;51.666;7.630;2023-05-01T02:14:48;101046.09;;;8.45;50.68
7524;BME280;3803;51.666;7.630;2023-05-01T02:15:11;101046.06;;;8.43;50.29
7524;BME280;3803;51.666;7.630;2023-05-01T02:15:33;101046.84;;;8.42;50.03
7524;BME280;3803;51.666;7.630;2023-05-01T02:15:58;101048.59;;;8.42;50.27
7524;BME280;3803;51.666;7.630;2023-05-01T02:16:21;101045.16;;;8.43;50.35
7524;BME280;3803;51.666;7.630;2023-05-01T02:16:45;101034.63;;;8.40;50.20
7524;BME280;3803;51.666;7.630;2023-05-01T02:17:19;101041.59;;;8.41;49.87
7524;BME280;3803;51.666;7.630;2023-05-01T02:17:40;101046.81;;;8.41;50.20
7524;BME280;3803;51.666;7.630;2023-05-01T02:18:02;101049.63;;;8.47;50.62
7524;BME280;3803;51.666;7.630;2023-05-01T02:18:26;101050.34;;;8.43;50.67
7524;BME280;3803;51.666;7.630;2023-05-01T02:18:49;101047.81;;;8.44;50.38
7524;BME280;3803;51.666;7.630;2023-05-01T02:19:12;101041.59;;;8.41;50.37
7524;BME280;3803;51.666;7.630;2023-05-01T02:19:36;101042.56;;;8.43;50.32
7524;BME280;3803;51.666;7.630;2023-05-01T02:19:59;101033.84;;;8.42;50.37
7524;BME280;3803;51.666;7.630;2023-05-01T02:20:23;101042.72;;;8.47;50.54
7524;BME280;3803;51.666;7.630;2023-05-01T02:20:44;101045.25;;;8.46;50.55
7524;BME280;3803;51.666;7.630;2023-05-01T02:21:05;101040.84;;;8.43;50.74
7524;BME280;3803;51.666;7.630;2023-05-01T02:21:30;101046.44;;;8.53;50.53
7524;BME280;3803;51.666;7.630;2023-05-01T02:21:56;101048.25;;;8.55;50.39
7524;BME280;3803;51.666;7.630;2023-05-01T02:22:17;101058.09;;;8.62;50.12
7524;BME280;3803;51.666;7.630;2023-05-01T02:22:40;101050.38;;;8.64;50.40
7524;BME280;3803;51.666;7.630;2023-05-01T02:23:02;101035.25;;;8.55;50.51
7524;BME280;3803;51.666;7.630;2023-05-01T02:23:26;101034.34;;;8.55;50.40
7524;BME280;3803;51.666;7.630;2023-05-01T02:23:48;101048.44;;;8.60;49.93
7524;BME280;3803;51.666;7.630;2023-05-01T02:24:09;101037.03;;;8.56;50.26
7524;BME280;3803;51.666;7.630;2023-05-01T02:24:32;101043.25;;;8.60;49.96